TAF LDZA 221125Z 2212/2312 VRB02KT 9999 SCT040
                 TX13/2213Z TNM04/2305Z
           BECMG 2212/2214 03015KT
    PROB40 TEMPO 2214/2300 03020G35KT=
TAF LDZA 220525Z 2206/2306 31006KT 9999 BKN035
                 TX09/2212Z TNM03/2305Z
    PROB30 TEMPO 2208/2212 4000 RA
           BECMG 2212/2214 03015KT
    PROB40 TEMPO 2214/2300 03020G35KT=
TAF LDZA 212325Z 2200/2300 VRB02KT 9999 SCT040
                 TX11/2213Z TNM01/2223Z
    PROB30 TEMPO 2206/2212 4000 -RA
           BECMG 2212/2214 03015KT
    PROB40 TEMPO 2214/2300 03020G35KT=
TAF LDZA 211725Z 2118/2218 VRB02KT 9999 SCT040
                 TX10/2213Z TN04/2205Z
    PROB40 TEMPO 2207/2214 4000 -RA
           BECMG 2212/2214 03015KT
    PROB30 TEMPO 2214/2218 03018G30KT=
TAF LDZA 211125Z 2112/2212 22005KT 9999 SCT040
                 TX14/2113Z TN04/2204Z
    PROB40 TEMPO 2208/2212 4000 -RA=
TAF LDZA 210525Z 2106/2206 23003KT CAVOK
                 TX14/2113Z TN03/2204Z=